sensor_id;sensor_type;location;lat;lon;timestamp;pressure;altitude;pressure_sealevel;temperature;humidity
29733;BME280;16643;43.158;25.302;2022-09-17T00:01:53;97034.53;;;21.82;66.19
29733;BME280;16643;43.158;25.302;2022-09-17T00:04:18;97060.44;;;21.98;65.43
29733;BME280;16643;43.158;25.302;2022-09-17T00:06:44;97039.94;;;21.90;65.60
29733;BME280;16643;43.158;25.302;2022-09-17T00:09:10;97071.41;;;22.13;66.22
29733;BME280;16643;43.158;25.302;2022-09-17T00:11:38;97055.88;;;22.00;65.05
29733;BME280;16643;43.158;25.302;2022-09-17T00:14:06;97052.81;;;21.76;66.13
29733;BME280;16643;43.158;25.302;2022-09-17T00:16:37;97065.03;;;21.96;66.81
29733;BME280;16643;43.158;25.302;2022-09-17T00:19:04;96986.13;;;21.62;66.75
29733;BME280;16643;43.158;25.302;2022-09-17T00:21:30;97030.63;;;21.96;65.56
29733;BME280;16643;43.158;25.302;2022-09-17T00:23:59;97069.59;;;22.23;66.82
29733;BME280;16643;43.158;25.302;2022-09-17T00:26:26;97016.44;;;21.87;65.99
29733;BME280;16643;43.158;25.302;2022-09-17T00:28:53;97044.41;;;22.09;66.62
29733;BME280;16643;43.158;25.302;2022-09-17T00:31:20;97022.31;;;21.71;67.76
29733;BME280;16643;43.158;25.302;2022-09-17T00:33:46;97026.56;;;21.92;68.22
29733;BME280;16643;43.158;25.302;2022-09-17T00:36:12;97028.94;;;22.04;65.47
29733;BME280;16643;43.158;25.302;2022-09-17T00:38:38;97006.94;;;21.94;65.18
29733;BME280;16643;43.158;25.302;2022-09-17T00:41:04;97026.72;;;22.09;65.32
29733;BME280;16643;43.158;25.302;2022-09-17T00:43:43;97023.09;;;22.01;66.20
29733;BME280;16643;43.158;25.302;2022-09-17T00:46:28;97021.19;;;21.84;66.86
29733;BME280;16643;43.158;25.302;2022-09-17T00:48:58;97018.00;;;21.70;67.46
29733;BME280;16643;43.158;25.302;2022-09-17T00:51:30;97007.72;;;21.58;68.04
29733;BME280;16643;43.158;25.302;2022-09-17T00:53:58;97003.00;;;21.52;68.45
29733;BME280;16643;43.158;25.302;2022-09-17T00:56:29;97001.75;;;21.46;68.63
29733;BME280;16643;43.158;25.302;2022-09-17T00:58:56;96994.94;;;21.44;68.92
29733;BME280;16643;43.158;25.302;2022-09-17T01:01:22;96983.53;;;21.53;68.71
29733;BME280;16643;43.158;25.302;2022-09-17T01:03:48;96995.63;;;21.55;68.41
29733;BME280;16643;43.158;25.302;2022-09-17T01:06:19;97003.16;;;21.41;69.11
29733;BME280;16643;43.158;25.302;2022-09-17T01:31:09;96948.06;;;21.26;69.26
29733;BME280;16643;43.158;25.302;2022-09-17T01:47:39;96906.59;;;21.17;69.82
29733;BME280;16643;43.158;25.302;2022-09-17T01:50:10;96942.72;;;21.46;68.43
29733;BME280;16643;43.158;25.302;2022-09-17T01:52:39;96928.00;;;21.43;69.08
29733;BME280;16643;43.158;25.302;2022-09-17T01:55:08;96924.06;;;21.47;69.01
29733;BME280;16643;43.158;25.302;2022-09-17T02:00:12;96898.34;;;21.40;69.65
29733;BME280;16643;43.158;25.302;2022-09-17T02:02:49;96901.38;;;21.45;68.91
29733;BME280;16643;43.158;25.302;2022-09-17T02:07:59;96951.03;;;21.70;68.98
29733;BME280;16643;43.158;25.302;2022-09-17T02:10:32;96921.56;;;21.55;69.20
29733;BME280;16643;43.158;25.302;2022-09-17T02:13:05;96918.22;;;21.53;68.13
29733;BME280;16643;43.158;25.302;2022-09-17T02:15:37;96904.91;;;21.35;69.68
29733;BME280;16643;43.158;25.302;2022-09-17T02:18:23;96926.13;;;21.63;69.31
29733;BME280;16643;43.158;25.302;2022-09-17T02:20:56;96921.25;;;21.58;68.72
29733;BME280;16643;43.158;25.302;2022-09-17T02:23:28;96909.69;;;21.59;68.65
29733;BME280;16643;43.158;25.302;2022-09-17T02:26:03;96925.25;;;21.72;68.52
29733;BME280;16643;43.158;25.302;2022-09-17T02:28:54;96901.75;;;21.59;68.74
29733;BME280;16643;43.158;25.302;2022-09-17T02:31:22;96923.22;;;21.66;68.18
29733;BME280;16643;43.158;25.302;2022-09-17T02:33:51;96929.75;;;21.62;68.00
29733;BME280;16643;43.158;25.302;2022-09-17T02:36:18;96945.19;;;21.57;69.03
29733;BME280;16643;43.158;25.302;2022-09-17T02:38:45;96960.06;;;21.67;68.74
29733;BME280;16643;43.158;25.302;2022-09-17T02:41:17;96960.47;;;21.72;69.78
29733;BME280;16643;43.158;25.302;2022-09-17T02:49:41;96945.84;;;21.31;70.17
29733;BME280;16643;43.158;25.302;2022-09-17T02:55:16;96923.69;;;21.42;67.36
29733;BME280;16643;43.158;25.302;2022-09-17T02:57:53;96898.47;;;21.48;66.74
29733;BME280;16643;43.158;25.302;2022-09-17T03:00:24;96885.84;;;21.22;68.65
29733;BME280;16643;43.158;25.302;2022-09-17T03:03:02;96884.34;;;21.10;70.32
29733;BME280;16643;43.158;25.302;2022-09-17T03:05:30;96883.22;;;21.03;71.64
29733;BME280;16643;43.158;25.302;2022-09-17T03:07:58;96875.44;;;21.01;72.25
29733;BME280;16643;43.158;25.302;2022-09-17T03:10:24;96867.53;;;20.92;73.00
29733;BME280;16643;43.158;25.302;2022-09-17T03:12:53;96860.56;;;20.91;73.09
29733;BME280;16643;43.158;25.302;2022-09-17T03:15:19;96814.44;;;20.76;72.68
29733;BME280;16643;43.158;25.302;2022-09-17T03:17:44;96861.53;;;21.09;72.70
29733;BME280;16643;43.158;25.302;2022-09-17T03:20:10;96864.56;;;21.14;72.18
29733;BME280;16643;43.158;25.302;2022-09-17T03:22:36;96794.44;;;20.73;72.81
29733;BME280;16643;43.158;25.302;2022-09-17T03:25:01;96790.41;;;20.59;73.42
29733;BME280;16643;43.158;25.302;2022-09-17T03:27:27;96846.28;;;20.84;73.58
29733;BME280;16643;43.158;25.302;2022-09-17T03:29:53;96838.22;;;20.85;73.48
29733;BME280;16643;43.158;25.302;2022-09-17T03:32:18;96796.13;;;20.64;73.48
29733;BME280;16643;43.158;25.302;2022-09-17T03:34:44;96840.72;;;20.87;73.04
29733;BME280;16643;43.158;25.302;2022-09-17T03:37:12;96838.19;;;20.95;71.95
29733;BME280;16643;43.158;25.302;2022-09-17T03:39:37;96831.97;;;20.86;72.80
29733;BME280;16643;43.158;25.302;2022-09-17T03:42:04;96827.81;;;20.74;72.62
29733;BME280;16643;43.158;25.302;2022-09-17T03:44:30;96770.69;;;20.54;72.49
29733;BME280;16643;43.158;25.302;2022-09-17T03:46:55;96764.56;;;20.44;72.12
29733;BME280;16643;43.158;25.302;2022-09-17T03:49:21;96823.59;;;20.81;71.91
29733;BME280;16643;43.158;25.302;2022-09-17T03:51:48;96840.66;;;21.06;72.05
29733;BME280;16643;43.158;25.302;2022-09-17T03:54:14;96814.41;;;20.95;72.42
29733;BME280;16643;43.158;25.302;2022-09-17T03:56:39;96795.66;;;20.79;72.39
29733;BME280;16643;43.158;25.302;2022-09-17T03:59:05;96825.84;;;20.76;73.33
29733;BME280;16643;43.158;25.302;2022-09-17T04:01:31;96799.03;;;20.71;73.68
29733;BME280;16643;43.158;25.302;2022-09-17T04:03:57;96812.31;;;20.89;72.57
29733;BME280;16643;43.158;25.302;2022-09-17T04:06:22;96806.03;;;20.99;72.46
29733;BME280;16643;43.158;25.302;2022-09-17T04:08:48;96796.28;;;21.00;71.42
29733;BME280;16643;43.158;25.302;2022-09-17T04:11:14;96757.63;;;20.62;73.22
29733;BME280;16643;43.158;25.302;2022-09-17T04:13:39;96725.69;;;20.36;72.53
29733;BME280;16643;43.158;25.302;2022-09-17T04:16:05;96803.31;;;20.72;72.43
29733;BME280;16643;43.158;25.302;2022-09-17T04:18:31;96783.00;;;20.82;72.77
29733;BME280;16643;43.158;25.302;2022-09-17T04:20:56;96762.59;;;20.75;70.98
29733;BME280;16643;43.158;25.302;2022-09-17T04:23:22;96728.16;;;20.57;72.00
29733;BME280;16643;43.158;25.302;2022-09-17T04:25:48;96791.31;;;20.97;69.68
29733;BME280;16643;43.158;25.302;2022-09-17T04:28:14;96816.31;;;21.22;70.98
29733;BME280;16643;43.158;25.302;2022-09-17T04:30:40;96814.34;;;21.14;71.29
29733;BME280;16643;43.158;25.302;2022-09-17T04:33:07;96820.47;;;21.24;71.56
29733;BME280;16643;43.158;25.302;2022-09-17T04:35:33;96801.59;;;21.10;70.90
29733;BME280;16643;43.158;25.302;2022-09-17T04:37:59;96806.53;;;21.32;71.14
29733;BME280;16643;43.158;25.302;2022-09-17T04:40:25;96822.06;;;21.45;70.65
29733;BME280;16643;43.158;25.302;2022-09-17T04:42:56;96798.16;;;21.36;70.80
29733;BME280;16643;43.158;25.302;2022-09-17T04:45:24;96814.81;;;21.47;69.12
29733;BME280;16643;43.158;25.302;2022-09-17T04:47:50;96794.25;;;21.41;66.89
29733;BME280;16643;43.158;25.302;2022-09-17T04:50:19;96828.06;;;21.74;65.84
29733;BME280;16643;43.158;25.302;2022-09-17T04:52:45;96803.19;;;21.67;66.06
29733;BME280;16643;43.158;25.302;2022-09-17T04:55:12;96817.56;;;21.82;65.42
29733;BME280;16643;43.158;25.302;2022-09-17T04:57:38;96802.44;;;21.92;67.62
29733;BME280;16643;43.158;25.302;2022-09-17T05:00:07;96807.19;;;21.98;67.40
29733;BME280;16643;43.158;25.302;2022-09-17T05:02:34;96781.56;;;21.99;66.03
29733;BME280;16643;43.158;25.302;2022-09-17T05:05:00;96799.25;;;22.16;65.65
29733;BME280;16643;43.158;25.302;2022-09-17T05:07:25;96802.38;;;22.29;63.74
29733;BME280;16643;43.158;25.302;2022-09-17T05:09:51;96789.03;;;22.39;64.34
29733;BME280;16643;43.158;25.302;2022-09-17T05:12:18;96791.84;;;22.55;61.71
29733;BME280;16643;43.158;25.302;2022-09-17T05:14:44;96798.16;;;22.80;61.10
29733;BME280;16643;43.158;25.302;2022-09-17T05:17:10;96792.94;;;22.88;59.56
29733;BME280;16643;43.158;25.302;2022-09-17T05:19:35;96779.06;;;22.94;58.67
29733;BME280;16643;43.158;25.302;2022-09-17T05:22:01;96787.94;;;23.11;57.96
29733;BME280;16643;43.158;25.302;2022-09-17T05:24:27;96797.66;;;23.28;59.42
29733;BME280;16643;43.158;25.302;2022-09-17T05:26:53;96795.09;;;23.44;58.44
29733;BME280;16643;43.158;25.302;2022-09-17T05:29:18;96785.53;;;23.51;56.78
29733;BME280;16643;43.158;25.302;2022-09-17T05:31:44;96794.25;;;23.78;57.30
29733;BME280;16643;43.158;25.302;2022-09-17T05:34:09;96801.56;;;23.84;57.80
29733;BME280;16643;43.158;25.302;2022-09-17T05:36:35;96819.59;;;24.14;56.23
29733;BME280;16643;43.158;25.302;2022-09-17T05:39:01;96786.53;;;24.09;57.15
29733;BME280;16643;43.158;25.302;2022-09-17T05:41:26;96786.38;;;24.18;56.29
29733;BME280;16643;43.158;25.302;2022-09-17T05:43:52;96791.38;;;24.21;54.84
29733;BME280;16643;43.158;25.302;2022-09-17T05:46:17;96777.97;;;24.23;55.84
29733;BME280;16643;43.158;25.302;2022-09-17T05:48:43;96784.78;;;24.34;55.73
29733;BME280;16643;43.158;25.302;2022-09-17T05:51:09;96796.91;;;24.52;55.60
29733;BME280;16643;43.158;25.302;2022-09-17T05:53:34;96780.97;;;24.36;55.43
29733;BME280;16643;43.158;25.302;2022-09-17T05:56:00;96788.78;;;24.46;55.30
29733;BME280;16643;43.158;25.302;2022-09-17T05:58:26;96817.19;;;24.70;54.77
29733;BME280;16643;43.158;25.302;2022-09-17T06:00:52;96798.06;;;24.74;54.96
29733;BME280;16643;43.158;25.302;2022-09-17T06:03:19;96795.91;;;24.78;54.97
29733;BME280;16643;43.158;25.302;2022-09-17T06:05:57;96826.31;;;25.00;55.60
29733;BME280;16643;43.158;25.302;2022-09-17T06:08:25;96836.13;;;25.07;53.00
29733;BME280;16643;43.158;25.302;2022-09-17T06:10:51;96810.53;;;24.98;53.35
29733;BME280;16643;43.158;25.302;2022-09-17T06:13:17;96784.25;;;24.95;53.17
29733;BME280;16643;43.158;25.302;2022-09-17T06:15:52;96803.84;;;25.18;52.57
29733;BME280;16643;43.158;25.302;2022-09-17T06:18:18;96839.19;;;25.51;53.38
29733;BME280;16643;43.158;25.302;2022-09-17T06:20:55;96839.00;;;25.69;52.55
29733;BME280;16643;43.158;25.302;2022-09-17T06:23:21;96804.75;;;25.58;52.83
29733;BME280;16643;43.158;25.302;2022-09-17T06:26:05;96834.13;;;25.81;52.91
29733;BME280;16643;43.158;25.302;2022-09-17T06:28:31;96834.41;;;25.94;52.51
29733;BME280;16643;43.158;25.302;2022-09-17T06:31:01;96842.19;;;26.03;52.67
29733;BME280;16643;43.158;25.302;2022-09-17T06:33:29;96842.19;;;26.03;51.43
29733;BME280;16643;43.158;25.302;2022-09-17T06:35:59;96824.88;;;25.99;52.29
29733;BME280;16643;43.158;25.302;2022-09-17T06:38:26;96814.78;;;25.95;52.62
29733;BME280;16643;43.158;25.302;2022-09-17T06:40:52;96820.81;;;26.12;54.38
29733;BME280;16643;43.158;25.302;2022-09-17T06:43:19;96852.22;;;26.32;55.52
29733;BME280;16643;43.158;25.302;2022-09-17T06:45:56;96826.88;;;26.06;57.03
29733;BME280;16643;43.158;25.302;2022-09-17T06:48:23;96856.13;;;26.14;58.46
29733;BME280;16643;43.158;25.302;2022-09-17T06:50:50;96837.88;;;26.02;59.12
29733;BME280;16643;43.158;25.302;2022-09-17T06:53:21;96836.19;;;26.01;58.37
29733;BME280;16643;43.158;25.302;2022-09-17T06:55:47;96855.63;;;26.10;60.97
29733;BME280;16643;43.158;25.302;2022-09-17T06:58:13;96848.63;;;26.09;58.93
29733;BME280;16643;43.158;25.302;2022-09-17T07:00:39;96864.78;;;26.16;57.63
29733;BME280;16643;43.158;25.302;2022-09-17T07:03:04;96859.28;;;26.17;55.19
29733;BME280;16643;43.158;25.302;2022-09-17T07:05:30;96849.97;;;26.13;52.80
29733;BME280;16643;43.158;25.302;2022-09-17T07:08:00;96857.56;;;26.24;51.88
29733;BME280;16643;43.158;25.302;2022-09-17T07:10:30;96852.53;;;26.37;49.81
29733;BME280;16643;43.158;25.302;2022-09-17T07:12:56;96852.34;;;26.39;50.39
29733;BME280;16643;43.158;25.302;2022-09-17T07:15:23;96794.22;;;26.03;49.50
29733;BME280;16643;43.158;25.302;2022-09-17T07:17:48;96871.97;;;26.46;49.39
29733;BME280;16643;43.158;25.302;2022-09-17T07:20:14;96859.16;;;26.42;49.94
29733;BME280;16643;43.158;25.302;2022-09-17T07:22:40;96848.19;;;26.36;49.49
29733;BME280;16643;43.158;25.302;2022-09-17T07:25:06;96859.16;;;26.42;50.81
29733;BME280;16643;43.158;25.302;2022-09-17T07:27:32;96842.03;;;26.36;48.97
29733;BME280;16643;43.158;25.302;2022-09-17T07:29:58;96862.06;;;26.55;48.87
29733;BME280;16643;43.158;25.302;2022-09-17T07:32:24;96854.19;;;26.61;49.37
29733;BME280;16643;43.158;25.302;2022-09-17T07:34:49;96844.72;;;26.59;48.24
29733;BME280;16643;43.158;25.302;2022-09-17T07:37:15;96844.19;;;26.63;49.58
29733;BME280;16643;43.158;25.302;2022-09-17T07:39:41;96855.06;;;26.76;47.13
29733;BME280;16643;43.158;25.302;2022-09-17T07:42:09;96870.31;;;26.91;47.40
29733;BME280;16643;43.158;25.302;2022-09-17T07:44:35;96869.72;;;27.03;46.94
29733;BME280;16643;43.158;25.302;2022-09-17T07:47:01;96848.56;;;27.02;46.73
29733;BME280;16643;43.158;25.302;2022-09-17T07:49:26;96829.09;;;27.16;46.91
29733;BME280;16643;43.158;25.302;2022-09-17T07:51:52;96841.38;;;27.40;46.49
29733;BME280;16643;43.158;25.302;2022-09-17T07:54:22;96811.69;;;27.35;45.66
29733;BME280;16643;43.158;25.302;2022-09-17T07:56:48;96849.75;;;27.52;44.21
29733;BME280;16643;43.158;25.302;2022-09-17T07:59:14;96835.47;;;27.30;44.88
29733;BME280;16643;43.158;25.302;2022-09-17T08:01:39;96873.75;;;27.37;45.45
29733;BME280;16643;43.158;25.302;2022-09-17T08:04:05;96857.97;;;27.13;45.65
29733;BME280;16643;43.158;25.302;2022-09-17T08:06:35;96872.63;;;27.17;46.07
29733;BME280;16643;43.158;25.302;2022-09-17T08:09:02;96870.31;;;27.14;46.80
29733;BME280;16643;43.158;25.302;2022-09-17T08:11:29;96875.75;;;27.20;46.65
29733;BME280;16643;43.158;25.302;2022-09-17T08:13:55;96857.25;;;27.19;46.78
29733;BME280;16643;43.158;25.302;2022-09-17T08:16:22;96880.41;;;27.41;46.57
29733;BME280;16643;43.158;25.302;2022-09-17T08:18:52;96841.34;;;27.25;46.42
29733;BME280;16643;43.158;25.302;2022-09-17T08:21:18;96836.66;;;27.27;46.75
29733;BME280;16643;43.158;25.302;2022-09-17T08:23:45;96866.66;;;27.44;46.57
29733;BME280;16643;43.158;25.302;2022-09-17T08:26:12;96848.44;;;27.47;47.20
29733;BME280;16643;43.158;25.302;2022-09-17T08:28:38;96825.63;;;27.30;47.71
29733;BME280;16643;43.158;25.302;2022-09-17T08:31:07;96851.13;;;27.47;48.45
29733;BME280;16643;43.158;25.302;2022-09-17T08:33:35;96868.38;;;27.60;48.05
29733;BME280;16643;43.158;25.302;2022-09-17T08:36:01;96851.06;;;27.56;46.94
29733;BME280;16643;43.158;25.302;2022-09-17T08:38:28;96867.44;;;27.67;45.92
29733;BME280;16643;43.158;25.302;2022-09-17T08:46:37;96864.50;;;27.77;45.55
29733;BME280;16643;43.158;25.302;2022-09-17T08:49:34;96872.69;;;27.90;44.77
29733;BME280;16643;43.158;25.302;2022-09-17T08:52:17;96865.97;;;27.94;44.07
29733;BME280;16643;43.158;25.302;2022-09-17T08:54:54;96874.00;;;28.09;43.93
29733;BME280;16643;43.158;25.302;2022-09-17T09:02:42;96845.47;;;28.67;43.41
29733;BME280;16643;43.158;25.302;2022-09-17T09:05:19;96818.47;;;28.83;42.88
29733;BME280;16643;43.158;25.302;2022-09-17T09:07:54;96815.91;;;28.96;41.92
29733;BME280;16643;43.158;25.302;2022-09-17T09:10:27;96822.41;;;29.15;41.11
29733;BME280;16643;43.158;25.302;2022-09-17T09:12:54;96847.19;;;29.45;41.43
29733;BME280;16643;43.158;25.302;2022-09-17T09:15:36;96831.97;;;29.52;41.09
29733;BME280;16643;43.158;25.302;2022-09-17T09:18:21;96825.88;;;29.65;40.43
29733;BME280;16643;43.158;25.302;2022-09-17T09:20:54;96855.25;;;29.86;38.98
29733;BME280;16643;43.158;25.302;2022-09-17T09:23:36;96821.41;;;29.78;38.74
29733;BME280;16643;43.158;25.302;2022-09-17T09:26:16;96846.94;;;29.74;38.18
29733;BME280;16643;43.158;25.302;2022-09-17T09:34:02;96818.97;;;29.49;38.31
29733;BME280;16643;43.158;25.302;2022-09-17T09:36:29;96845.38;;;29.93;38.60
29733;BME280;16643;43.158;25.302;2022-09-17T09:39:01;96828.38;;;29.73;36.81
29733;BME280;16643;43.158;25.302;2022-09-17T09:41:35;96798.19;;;29.51;35.97
29733;BME280;16643;43.158;25.302;2022-09-17T09:44:08;96841.28;;;29.90;36.76
29733;BME280;16643;43.158;25.302;2022-09-17T09:51:47;96830.13;;;30.41;35.35
29733;BME280;16643;43.158;25.302;2022-09-17T09:59:21;96829.72;;;30.51;35.24
29733;BME280;16643;43.158;25.302;2022-09-17T10:01:47;96839.50;;;30.58;35.54
29733;BME280;16643;43.158;25.302;2022-09-17T10:04:17;96843.81;;;30.53;33.78
29733;BME280;16643;43.158;25.302;2022-09-17T10:06:45;96822.63;;;30.10;33.55
29733;BME280;16643;43.158;25.302;2022-09-17T10:09:12;96845.72;;;30.11;34.12
29733;BME280;16643;43.158;25.302;2022-09-17T10:11:39;96839.53;;;30.17;34.58
29733;BME280;16643;43.158;25.302;2022-09-17T10:14:21;96837.28;;;30.21;34.98
29733;BME280;16643;43.158;25.302;2022-09-17T10:16:49;96841.38;;;30.10;34.65
29733;BME280;16643;43.158;25.302;2022-09-17T10:19:19;96831.63;;;30.03;34.62
29733;BME280;16643;43.158;25.302;2022-09-17T10:21:50;96826.28;;;30.03;35.20
29733;BME280;16643;43.158;25.302;2022-09-17T10:24:20;96836.66;;;30.12;34.76
29733;BME280;16643;43.158;25.302;2022-09-17T10:26:48;96820.91;;;29.96;34.95
29733;BME280;16643;43.158;25.302;2022-09-17T10:29:17;96834.66;;;29.93;34.78
29733;BME280;16643;43.158;25.302;2022-09-17T10:31:52;96839.75;;;29.81;35.03
29733;BME280;16643;43.158;25.302;2022-09-17T10:34:24;96821.28;;;29.58;35.80
29733;BME280;16643;43.158;25.302;2022-09-17T10:36:51;96848.16;;;29.65;36.11
29733;BME280;16643;43.158;25.302;2022-09-17T10:39:32;96838.75;;;29.48;35.90
29733;BME280;16643;43.158;25.302;2022-09-17T10:44:37;96858.44;;;28.70;37.95
29733;BME280;16643;43.158;25.302;2022-09-17T10:47:06;96862.94;;;28.48;39.29
29733;BME280;16643;43.158;25.302;2022-09-17T10:49:42;96836.31;;;27.89;41.69
29733;BME280;16643;43.158;25.302;2022-09-17T11:00:48;96930.16;;;26.65;49.72
29733;BME280;16643;43.158;25.302;2022-09-17T11:06:19;96967.25;;;26.05;50.54
29733;BME280;16643;43.158;25.302;2022-09-17T11:08:57;96962.50;;;25.68;50.84
29733;BME280;16643;43.158;25.302;2022-09-17T11:11:47;96959.34;;;25.48;51.39
29733;BME280;16643;43.158;25.302;2022-09-17T11:17:56;96999.25;;;25.16;56.39
29733;BME280;16643;43.158;25.302;2022-09-17T11:25:56;96958.03;;;24.19;65.42
29733;BME280;16643;43.158;25.302;2022-09-17T11:31:48;96999.41;;;23.96;70.89
29733;BME280;16643;43.158;25.302;2022-09-17T11:42:21;96993.81;;;22.39;81.43
29733;BME280;16643;43.158;25.302;2022-09-17T11:45:02;96949.16;;;21.80;85.03
29733;BME280;16643;43.158;25.302;2022-09-17T11:47:44;96985.81;;;21.85;87.58
29733;BME280;16643;43.158;25.302;2022-09-17T11:50:21;97026.75;;;22.00;88.21
29733;BME280;16643;43.158;25.302;2022-09-17T11:53:21;97016.75;;;21.74;91.93
29733;BME280;16643;43.158;25.302;2022-09-17T11:56:02;97032.91;;;21.62;94.01
29733;BME280;16643;43.158;25.302;2022-09-17T11:58:39;96998.41;;;21.54;96.19
29733;BME280;16643;43.158;25.302;2022-09-17T12:04:00;96927.63;;;21.19;98.47
29733;BME280;16643;43.158;25.302;2022-09-17T12:06:56;96943.34;;;21.20;100.00
29733;BME280;16643;43.158;25.302;2022-09-17T12:09:27;96917.72;;;21.11;100.00
29733;BME280;16643;43.158;25.302;2022-09-17T12:12:11;96950.69;;;21.36;100.00
29733;BME280;16643;43.158;25.302;2022-09-17T12:14:45;96940.50;;;21.51;100.00
29733;BME280;16643;43.158;25.302;2022-09-17T12:17:27;96921.47;;;21.37;100.00
29733;BME280;16643;43.158;25.302;2022-09-17T12:19:59;96932.16;;;21.55;100.00
29733;BME280;16643;43.158;25.302;2022-09-17T12:22:34;96954.63;;;21.69;100.00
29733;BME280;16643;43.158;25.302;2022-09-17T12:25:03;96930.31;;;21.56;100.00
29733;BME280;16643;43.158;25.302;2022-09-17T12:27:59;96937.19;;;21.39;100.00
29733;BME280;16643;43.158;25.302;2022-09-17T12:30:43;96965.28;;;21.50;100.00
29733;BME280;16643;43.158;25.302;2022-09-17T12:33:33;96945.38;;;21.55;100.00
29733;BME280;16643;43.158;25.302;2022-09-17T12:38:56;96933.28;;;21.80;100.00
29733;BME280;16643;43.158;25.302;2022-09-17T12:44:32;96876.88;;;21.80;100.00
29733;BME280;16643;43.158;25.302;2022-09-17T12:56:32;96889.09;;;22.00;100.00
29733;BME280;16643;43.158;25.302;2022-09-17T12:59:11;96889.28;;;22.16;100.00
29733;BME280;16643;43.158;25.302;2022-09-17T13:04:49;96899.91;;;22.06;100.00
29733;BME280;16643;43.158;25.302;2022-09-17T13:10:53;96876.31;;;21.86;100.00
29733;BME280;16643;43.158;25.302;2022-09-17T13:16:32;96860.97;;;21.99;100.00
29733;BME280;16643;43.158;25.302;2022-09-17T13:22:13;96853.06;;;22.34;100.00
29733;BME280;16643;43.158;25.302;2022-09-17T13:24:41;96792.22;;;22.25;100.00
29733;BME280;16643;43.158;25.302;2022-09-17T13:27:38;96842.25;;;22.63;99.67
29733;BME280;16643;43.158;25.302;2022-09-17T13:30:09;96838.22;;;22.59;98.68
29733;BME280;16643;43.158;25.302;2022-09-17T13:37:42;96836.66;;;22.66;96.75
29733;BME280;16643;43.158;25.302;2022-09-17T13:40:27;96837.78;;;22.81;95.64
29733;BME280;16643;43.158;25.302;2022-09-17T13:43:16;96800.53;;;22.65;99.79
29733;BME280;16643;43.158;25.302;2022-09-17T13:48:32;96810.63;;;22.79;97.97
29733;BME280;16643;43.158;25.302;2022-09-17T13:53:57;96762.13;;;22.08;98.79
29733;BME280;16643;43.158;25.302;2022-09-17T13:56:31;96788.22;;;22.38;98.63
29733;BME280;16643;43.158;25.302;2022-09-17T13:59:18;96743.19;;;22.38;99.05
29733;BME280;16643;43.158;25.302;2022-09-17T14:07:31;96765.97;;;22.75;100.00
29733;BME280;16643;43.158;25.302;2022-09-17T14:12:55;96753.91;;;22.55;100.00
29733;BME280;16643;43.158;25.302;2022-09-17T14:21:04;96732.88;;;22.53;100.00
29733;BME280;16643;43.158;25.302;2022-09-17T14:23:43;96714.09;;;22.46;100.00
29733;BME280;16643;43.158;25.302;2022-09-17T14:26:27;96755.69;;;22.72;100.00
29733;BME280;16643;43.158;25.302;2022-09-17T14:31:46;96715.41;;;22.42;100.00
29733;BME280;16643;43.158;25.302;2022-09-17T14:34:18;96734.75;;;22.61;99.86
29733;BME280;16643;43.158;25.302;2022-09-17T14:36:46;96738.91;;;22.63;98.45
29733;BME280;16643;43.158;25.302;2022-09-17T14:39:33;96707.03;;;22.29;97.32
29733;BME280;16643;43.158;25.302;2022-09-17T14:42:00;96737.63;;;22.50;97.42
29733;BME280;16643;43.158;25.302;2022-09-17T14:44:27;96666.00;;;22.07;96.62
29733;BME280;16643;43.158;25.302;2022-09-17T14:47:12;96688.66;;;22.28;97.14
29733;BME280;16643;43.158;25.302;2022-09-17T14:49:39;96673.75;;;22.27;96.84
29733;BME280;16643;43.158;25.302;2022-09-17T14:52:26;96668.09;;;22.04;97.68
29733;BME280;16643;43.158;25.302;2022-09-17T14:55:19;96683.25;;;22.12;98.59
29733;BME280;16643;43.158;25.302;2022-09-17T14:57:51;96718.63;;;22.28;98.26
29733;BME280;16643;43.158;25.302;2022-09-17T15:00:34;96675.06;;;22.05;98.11
29733;BME280;16643;43.158;25.302;2022-09-17T15:03:01;96692.22;;;22.19;98.26
29733;BME280;16643;43.158;25.302;2022-09-17T15:05:34;96667.66;;;22.08;98.29
29733;BME280;16643;43.158;25.302;2022-09-17T15:08:25;96678.34;;;22.25;98.21
29733;BME280;16643;43.158;25.302;2022-09-17T15:10:58;96657.97;;;22.17;98.25
29733;BME280;16643;43.158;25.302;2022-09-17T15:13:31;96663.84;;;22.29;99.19
29733;BME280;16643;43.158;25.302;2022-09-17T15:16:25;96685.31;;;22.43;97.81
29733;BME280;16643;43.158;25.302;2022-09-17T15:18:53;96693.25;;;22.43;97.22
29733;BME280;16643;43.158;25.302;2022-09-17T15:21:25;96691.59;;;22.42;97.98
29733;BME280;16643;43.158;25.302;2022-09-17T15:23:54;96649.88;;;22.19;97.95
29733;BME280;16643;43.158;25.302;2022-09-17T15:26:28;96659.25;;;22.13;97.59
29733;BME280;16643;43.158;25.302;2022-09-17T15:28:56;96664.75;;;22.20;97.89
29733;BME280;16643;43.158;25.302;2022-09-17T15:31:22;96667.00;;;22.32;97.50
29733;BME280;16643;43.158;25.302;2022-09-17T15:33:48;96634.28;;;22.16;97.71
29733;BME280;16643;43.158;25.302;2022-09-17T15:36:25;96667.78;;;22.51;98.35
29733;BME280;16643;43.158;25.302;2022-09-17T15:38:52;96655.53;;;22.50;98.78
29733;BME280;16643;43.158;25.302;2022-09-17T15:41:34;96654.91;;;22.56;98.03
29733;BME280;16643;43.158;25.302;2022-09-17T15:46:37;96632.44;;;22.34;97.96
29733;BME280;16643;43.158;25.302;2022-09-17T15:49:32;96602.63;;;22.06;97.98
29733;BME280;16643;43.158;25.302;2022-09-17T15:54:46;96673.06;;;22.25;97.31
29733;BME280;16643;43.158;25.302;2022-09-17T15:57:14;96670.47;;;22.07;95.51
29733;BME280;16643;43.158;25.302;2022-09-17T15:59:41;96666.16;;;22.06;94.83
29733;BME280;16643;43.158;25.302;2022-09-17T16:02:24;96676.50;;;22.17;95.08
29733;BME280;16643;43.158;25.302;2022-09-17T16:05:41;96623.94;;;22.04;95.50